Time;durP1;ratioP1;P1;durP2;ratioP2;P2;SDS_P1;SDS_P2;PMS_P1;PMS_P2;Temp;Humidity;BMP_temperature;BMP_pressure;BME280_temperature;BME280_humidity;BME280_pressure;Samples;Min_cycle;Max_cycle;Signal;HPM_P1;HPM_P2
2022/08/10 00:00:22;;;;;;;5.50;4.40;;;19.80;98.40;;;;;;5068589;28;20439;-74
2022/08/10 00:02:50;;;;;;;6.90;4.30;;;19.70;98.50;;;;;;5063990;28;20444;-75
2022/08/10 00:05:18;;;;;;;5.77;4.00;;;19.70;98.70;;;;;;5062736;28;20509;-75
2022/08/10 00:07:45;;;;;;;6.10;4.33;;;19.70;98.90;;;;;;5064691;28;20502;-75
2022/08/10 00:10:13;;;;;;;9.03;5.00;;;19.70;99.00;;;;;;5053739;28;20514;-75
2022/08/10 00:12:41;;;;;;;8.20;4.67;;;19.70;99.20;;;;;;5057304;28;20445;-74
2022/08/10 00:15:10;;;;;;;4.80;4.03;;;19.70;99.30;;;;;;5060352;28;20947;-74
2022/08/10 00:17:38;;;;;;;5.27;4.20;;;19.60;99.30;;;;;;5068178;28;20501;-75
2022/08/10 00:20:06;;;;;;;5.93;4.17;;;19.60;99.50;;;;;;5065388;28;20440;-74
2022/08/10 00:22:34;;;;;;;8.53;5.80;;;19.50;99.70;;;;;;5057893;28;20559;-75
2022/08/10 00:25:01;;;;;;;8.17;4.40;;;19.50;99.90;;;;;;5056107;28;20456;-74
2022/08/10 00:27:29;;;;;;;4.90;4.10;;;19.50;99.90;;;;;;5062854;28;20456;-75
2022/08/10 00:29:56;;;;;;;6.83;4.40;;;19.40;99.90;;;;;;5055583;28;20537;-74
2022/08/10 00:32:23;;;;;;;5.07;4.53;;;19.30;99.90;;;;;;5064172;28;20963;-75
2022/08/10 00:34:50;;;;;;;5.43;4.60;;;19.30;99.90;;;;;;5064143;28;20427;-74
2022/08/10 00:37:17;;;;;;;11.53;4.30;;;19.20;99.90;;;;;;5064144;28;20426;-75
2022/08/10 00:39:46;;;;;;;7.30;4.77;;;19.20;99.90;;;;;;5058124;28;20452;-75
2022/08/10 00:42:14;;;;;;;7.33;5.17;;;19.10;99.90;;;;;;5063884;28;20526;-74
2022/08/10 00:44:42;;;;;;;8.80;4.50;;;19.10;99.90;;;;;;5054097;28;20510;-75
2022/08/10 00:47:10;;;;;;;5.77;5.27;;;19.00;99.90;;;;;;5064452;28;20424;-74
2022/08/10 00:49:37;;;;;;;6.70;4.80;;;19.00;99.90;;;;;;5061657;28;20506;-74
2022/08/10 00:52:04;;;;;;;6.53;4.87;;;19.00;99.90;;;;;;5064600;28;20474;-75
2022/08/10 00:54:31;;;;;;;4.80;4.33;;;18.90;99.90;;;;;;5061277;28;20435;-75
2022/08/10 00:56:59;;;;;;;7.20;4.40;;;18.90;99.90;;;;;;5066594;28;20875;-75
2022/08/10 00:59:26;;;;;;;8.90;4.87;;;18.90;99.90;;;;;;5070655;28;20447;-75
2022/08/10 01:01:53;;;;;;;8.53;4.93;;;18.90;99.90;;;;;;5066835;28;20467;-75
2022/08/10 01:04:19;;;;;;;10.50;4.73;;;18.90;99.90;;;;;;5059218;28;20451;-74
2022/08/10 01:06:56;;;;;;;5.97;4.43;;;18.90;99.90;;;;;;5058436;28;20497;-74
2022/08/10 01:09:31;;;;;;;10.13;4.17;;;18.80;99.90;;;;;;5057628;28;20488;-75
2022/08/10 01:12:08;;;;;;;9.00;4.30;;;18.80;99.90;;;;;;5069989;28;20483;-74
2022/08/10 01:14:38;;;;;;;10.73;5.43;;;18.80;99.90;;;;;;5068172;28;20437;-74
2022/08/10 01:17:11;;;;;;;9.43;5.13;;;18.80;99.90;;;;;;5068654;28;20501;-75
2022/08/10 01:19:54;;;;;;;8.63;5.10;;;18.70;99.90;;;;;;5064706;28;21111;-74
2022/08/10 01:22:35;;;;;;;5.07;4.60;;;18.70;99.90;;;;;;5054639;28;20522;-75
2022/08/10 01:25:25;;;;;;;6.63;5.07;;;18.60;99.90;;;;;;5065681;28;20439;-75
2022/08/10 01:28:04;;;;;;;5.80;4.70;;;18.60;99.90;;;;;;5056980;28;20453;-74
2022/08/10 01:30:35;;;;;;;6.60;4.40;;;18.50;99.90;;;;;;5056701;28;20467;-74
2022/08/10 01:33:06;;;;;;;11.30;5.17;;;18.50;99.90;;;;;;5065411;28;21043;-75
2022/08/10 01:35:37;;;;;;;11.20;5.07;;;18.40;99.90;;;;;;5057445;28;20426;-75
2022/08/10 01:38:06;;;;;;;10.63;4.57;;;18.40;99.90;;;;;;5064034;28;20427;-74
2022/08/10 01:40:38;;;;;;;5.87;4.60;;;18.20;99.90;;;;;;5058727;28;20480;-75
2022/08/10 01:43:07;;;;;;;8.53;4.90;;;18.40;99.90;;;;;;5059800;28;20418;-74
2022/08/10 01:45:39;;;;;;;6.93;5.13;;;18.30;99.90;;;;;;5055872;28;20990;-75
2022/08/10 01:50:57;;;;;;;6.43;4.70;;;18.30;99.90;;;;;;5054156;28;20546;-75
2022/08/10 01:53:32;;;;;;;11.60;5.37;;;18.30;99.90;;;;;;5056817;28;20423;-74
2022/08/10 01:56:00;;;;;;;6.53;4.93;;;18.30;99.90;;;;;;5059634;28;20860;-74
2022/08/10 01:58:30;;;;;;;5.80;4.40;;;18.20;99.90;;;;;;5062506;28;20471;-74
2022/08/10 02:01:00;;;;;;;15.83;5.30;;;18.20;99.90;;;;;;5067273;28;20442;-74
2022/08/10 02:03:28;;;;;;;7.00;5.00;;;18.20;99.90;;;;;;5069095;28;20463;-75
2022/08/10 02:05:56;;;;;;;6.93;4.90;;;18.20;99.90;;;;;;5068662;28;20426;-74
2022/08/10 02:08:25;;;;;;;8.17;4.60;;;18.20;99.90;;;;;;5062584;28;20453;-77
2022/08/10 02:10:53;;;;;;;4.77;4.27;;;18.10;99.90;;;;;;5067060;28;20910;-77
2022/08/10 02:13:21;;;;;;;5.83;5.03;;;18.10;99.90;;;;;;5059143;28;20431;-75
2022/08/10 02:15:50;;;;;;;7.20;4.57;;;18.10;99.90;;;;;;5056728;28;20438;-75
2022/08/10 02:18:20;;;;;;;11.73;5.73;;;18.10;99.90;;;;;;5061645;28;20427;-75
2022/08/10 02:20:50;;;;;;;6.83;5.10;;;18.00;99.90;;;;;;5052405;28;20786;-74
2022/08/10 02:23:20;;;;;;;5.37;4.87;;;18.00;99.90;;;;;;5064336;28;20827;-74
2022/08/10 02:25:48;;;;;;;8.33;4.80;;;18.00;99.90;;;;;;5055764;28;20466;-75
2022/08/10 02:28:18;;;;;;;6.47;4.60;;;18.00;99.90;;;;;;5054171;28;20927;-75
2022/08/10 02:30:46;;;;;;;5.43;4.83;;;17.90;99.90;;;;;;5066017;28;22258;-74
2022/08/10 02:33:15;;;;;;;8.63;4.87;;;17.90;99.90;;;;;;5061527;28;20777;-75
2022/08/10 02:35:45;;;;;;;7.27;4.93;;;17.90;99.90;;;;;;5058872;28;20518;-75
2022/08/10 02:38:13;;;;;;;8.57;4.97;;;17.90;99.90;;;;;;5051515;28;20542;-75
2022/08/10 02:40:47;;;;;;;8.50;4.87;;;17.80;99.90;;;;;;5050904;28;20443;-75
2022/08/10 02:43:21;;;;;;;4.90;4.43;;;17.80;99.90;;;;;;5051674;28;20469;-75
2022/08/10 02:45:52;;;;;;;5.23;4.67;;;17.80;99.90;;;;;;5058651;28;20938;-75
2022/08/10 02:48:21;;;;;;;10.87;5.00;;;17.80;99.90;;;;;;5052669;28;20448;-75
2022/08/10 02:50:57;;;;;;;8.40;4.70;;;17.70;99.90;;;;;;5055886;28;20492;-75
2022/08/10 02:53:30;;;;;;;5.90;5.30;;;17.70;99.90;;;;;;5054770;28;20430;-75
2022/08/10 02:56:00;;;;;;;7.37;4.47;;;17.70;99.90;;;;;;5062187;28;20451;-75
2022/08/10 02:58:31;;;;;;;5.43;4.87;;;17.70;99.90;;;;;;5068093;28;20422;-75
2022/08/10 03:01:01;;;;;;;5.40;4.63;;;17.70;99.90;;;;;;5061572;28;20442;-75
2022/08/10 03:03:32;;;;;;;8.33;4.93;;;17.60;99.90;;;;;;5069131;28;20443;-75
2022/08/10 03:06:05;;;;;;;7.70;4.33;;;17.60;99.90;;;;;;5061750;28;20473;-75
2022/08/10 03:08:36;;;;;;;4.83;4.43;;;17.60;99.90;;;;;;5054430;28;20423;-75
2022/08/10 03:11:06;;;;;;;5.70;5.20;;;17.60;99.90;;;;;;5057394;28;20463;-75
2022/08/10 03:13:34;;;;;;;5.57;4.97;;;17.60;99.90;;;;;;5053384;28;20423;-75
2022/08/10 03:16:02;;;;;;;5.13;4.50;;;17.60;99.90;;;;;;5053435;28;20473;-75
2022/08/10 03:18:31;;;;;;;10.53;5.30;;;17.60;99.90;;;;;;5057892;28;20434;-75
2022/08/10 03:20:59;;;;;;;11.60;5.20;;;17.60;99.90;;;;;;5062625;28;20879;-75
2022/08/10 03:23:27;;;;;;;5.10;4.17;;;17.60;99.90;;;;;;5052858;28;20936;-75
2022/08/10 03:25:57;;;;;;;8.23;5.90;;;17.60;99.90;;;;;;5050675;28;20427;-75
2022/08/10 03:28:26;;;;;;;11.80;5.07;;;17.50;99.90;;;;;;5054298;28;20427;-75
2022/08/10 03:30:54;;;;;;;10.77;5.10;;;17.50;99.90;;;;;;5054778;28;20519;-76
2022/08/10 03:33:23;;;;;;;9.90;4.50;;;17.40;99.90;;;;;;5052975;28;20435;-76
2022/08/10 03:35:51;;;;;;;7.53;5.50;;;17.40;99.90;;;;;;5050989;28;20477;-76
2022/08/10 03:38:18;;;;;;;7.37;4.70;;;17.40;99.90;;;;;;5052890;28;20449;-76
2022/08/10 03:40:47;;;;;;;10.30;4.90;;;17.40;99.90;;;;;;5061856;28;20589;-76
2022/08/10 03:43:17;;;;;;;12.63;5.17;;;17.40;99.90;;;;;;5053974;28;20775;-76
2022/08/10 03:45:46;;;;;;;6.23;4.60;;;17.40;99.90;;;;;;5068202;28;20426;-76
2022/08/10 03:48:14;;;;;;;7.43;5.10;;;17.30;99.90;;;;;;5059967;28;20955;-76
2022/08/10 03:50:41;;;;;;;7.20;4.73;;;17.30;99.90;;;;;;5054268;28;20525;-76
2022/08/10 03:53:08;;;;;;;7.33;4.90;;;17.30;99.90;;;;;;5065506;28;20452;-76
2022/08/10 03:55:36;;;;;;;12.10;4.70;;;17.30;99.90;;;;;;5057324;28;20464;-76
2022/08/10 03:58:04;;;;;;;6.93;5.40;;;17.20;99.90;;;;;;5060962;28;20422;-76
2022/08/10 04:00:33;;;;;;;5.07;4.67;;;17.20;99.90;;;;;;5061238;28;20488;-76
2022/08/10 04:03:01;;;;;;;8.30;5.10;;;17.20;99.90;;;;;;5070650;28;20456;-76
2022/08/10 04:05:28;;;;;;;11.03;5.90;;;17.10;99.90;;;;;;5070983;28;20487;-75
2022/08/10 04:07:55;;;;;;;6.03;5.00;;;17.10;99.90;;;;;;5069816;28;20474;-76
2022/08/10 04:10:22;;;;;;;4.93;4.30;;;17.10;99.90;;;;;;5054081;28;20517;-76
2022/08/10 04:12:48;;;;;;;5.57;4.70;;;17.20;99.90;;;;;;5062969;28;20525;-76
2022/08/10 04:15:16;;;;;;;5.40;4.20;;;17.30;99.90;;;;;;5069408;28;20448;-76
2022/08/10 04:17:43;;;;;;;4.70;4.30;;;17.40;99.90;;;;;;5066270;28;20426;-76
2022/08/10 04:20:18;;;;;;;7.10;5.23;;;17.50;99.90;;;;;;5068289;28;20459;-76
2022/08/10 04:22:46;;;;;;;7.50;5.50;;;17.40;99.90;;;;;;5064344;28;20414;-76
2022/08/10 04:25:16;;;;;;;5.53;5.03;;;17.50;99.90;;;;;;5068650;28;20444;-76
2022/08/10 04:27:43;;;;;;;5.63;5.00;;;17.50;99.90;;;;;;5064857;28;20447;-76
2022/08/10 04:30:11;;;;;;;7.73;4.50;;;17.50;99.90;;;;;;5065285;28;20496;-76
2022/08/10 04:32:40;;;;;;;5.20;4.80;;;17.60;99.90;;;;;;5057271;28;20608;-75
2022/08/10 04:35:09;;;;;;;5.03;4.57;;;17.60;99.90;;;;;;5064580;28;20949;-73
2022/08/10 04:37:37;;;;;;;5.83;4.90;;;17.60;99.90;;;;;;5064399;28;20429;-76
2022/08/10 04:40:05;;;;;;;5.97;4.90;;;17.60;99.90;;;;;;5058228;28;20485;-76
2022/08/10 04:42:32;;;;;;;5.90;4.57;;;17.60;99.90;;;;;;5063196;28;20468;-75
2022/08/10 04:44:59;;;;;;;6.07;5.00;;;17.50;99.90;;;;;;5062159;28;21010;-76
2022/08/10 04:47:26;;;;;;;8.50;4.90;;;17.50;99.90;;;;;;5055617;28;20427;-80
2022/08/10 04:49:54;;;;;;;12.63;5.20;;;17.60;99.90;;;;;;5061805;28;20943;-76
2022/08/10 04:52:21;;;;;;;12.73;5.27;;;17.60;99.90;;;;;;5057574;28;20633;-77
2022/08/10 04:54:47;;;;;;;5.93;5.33;;;17.80;99.90;;;;;;5059124;28;20423;-77
2022/08/10 04:57:14;;;;;;;13.57;5.50;;;17.90;99.90;;;;;;5063950;28;20471;-76
2022/08/10 04:59:41;;;;;;;4.97;4.57;;;18.10;99.90;;;;;;5064028;28;20426;-77
2022/08/10 05:02:07;;;;;;;6.93;4.80;;;18.30;99.90;;;;;;5059767;28;20842;-77
2022/08/10 05:04:34;;;;;;;15.17;5.13;;;18.40;99.90;;;;;;5068955;28;20456;-75
2022/08/10 05:07:02;;;;;;;5.40;4.50;;;18.40;99.90;;;;;;5062023;28;20484;-79
2022/08/10 05:09:28;;;;;;;7.97;5.27;;;18.50;99.90;;;;;;5067808;28;20434;-79
2022/08/10 05:11:55;;;;;;;8.90;5.43;;;18.50;99.90;;;;;;5053320;28;20536;-80
2022/08/10 05:14:22;;;;;;;6.20;5.23;;;18.60;99.90;;;;;;5059159;28;20428;-80
2022/08/10 05:16:48;;;;;;;7.60;5.30;;;18.70;99.90;;;;;;5056416;28;20435;-79
2022/08/10 05:19:15;;;;;;;5.37;4.87;;;18.80;99.90;;;;;;5057610;28;20489;-79
2022/08/10 05:21:43;;;;;;;6.00;4.50;;;18.90;99.90;;;;;;5059919;28;20425;-76
2022/08/10 05:24:11;;;;;;;12.43;4.67;;;18.80;99.90;;;;;;5061881;28;20193;-75
2022/08/10 05:26:38;;;;;;;12.30;5.93;;;18.80;99.90;;;;;;5056057;28;20423;-75
2022/08/10 05:29:05;;;;;;;7.27;4.90;;;18.80;99.90;;;;;;5054302;28;20473;-75
2022/08/10 05:31:32;;;;;;;6.00;4.63;;;18.70;99.90;;;;;;5079480;28;20484;-75
2022/08/10 05:33:58;;;;;;;5.67;4.60;;;18.80;99.90;;;;;;5091460;28;20961;-75
2022/08/10 05:36:26;;;;;;;6.67;4.53;;;18.80;99.90;;;;;;5093141;28;20425;-75
2022/08/10 05:38:53;;;;;;;6.93;4.93;;;18.80;99.90;;;;;;5091562;28;20457;-75
2022/08/10 05:41:22;;;;;;;7.67;4.70;;;18.90;99.90;;;;;;5092644;28;20474;-75
2022/08/10 05:43:50;;;;;;;10.87;5.17;;;18.90;99.90;;;;;;5093129;28;20864;-75
2022/08/10 05:46:16;;;;;;;5.40;4.90;;;18.90;99.90;;;;;;5093105;28;20834;-75
2022/08/10 05:48:43;;;;;;;7.67;5.10;;;19.00;99.90;;;;;;5093316;28;20425;-75
2022/08/10 05:51:10;;;;;;;5.47;4.97;;;19.00;99.90;;;;;;5087265;28;20514;-75
2022/08/10 05:53:37;;;;;;;6.93;5.17;;;19.20;99.90;;;;;;5072624;28;20458;-75
2022/08/10 05:56:06;;;;;;;11.53;4.40;;;19.40;99.90;;;;;;5072810;28;20461;-75
2022/08/10 05:58:35;;;;;;;8.73;4.47;;;19.70;99.90;;;;;;5072563;28;20476;-75
2022/08/10 06:01:05;;;;;;;6.17;4.70;;;19.90;99.90;;;;;;5072394;28;20446;-76
2022/08/10 06:03:46;;;;;;;9.67;4.90;;;20.00;99.90;;;;;;5072746;28;20443;-76
2022/08/10 06:06:17;;;;;;;5.30;4.80;;;20.20;99.90;;;;;;5072772;28;20434;-76
2022/08/10 06:08:45;;;;;;;6.10;5.20;;;20.20;99.90;;;;;;5072588;28;20429;-76
2022/08/10 06:11:15;;;;;;;6.77;4.63;;;20.40;99.90;;;;;;5072113;28;20810;-76
2022/08/10 06:16:31;;;;;;;4.33;3.93;;;21.10;99.90;;;;;;5072551;28;20850;-76
2022/08/10 06:18:59;;;;;;;8.40;4.70;;;21.40;99.90;;;;;;5072361;28;21058;-76
2022/08/10 06:21:27;;;;;;;10.77;5.30;;;21.60;99.90;;;;;;5071995;28;20897;-76
2022/08/10 06:23:54;;;;;;;6.83;4.93;;;21.70;99.90;;;;;;5056657;28;20502;-76
2022/08/10 06:26:21;;;;;;;8.83;5.57;;;21.90;99.90;;;;;;5052367;28;20452;-76
2022/08/10 06:28:55;;;;;;;6.80;5.27;;;21.90;99.90;;;;;;5052269;28;20502;-76
2022/08/10 06:31:23;;;;;;;9.77;4.77;;;22.00;99.90;;;;;;5064241;28;20445;-76
2022/08/10 06:33:51;;;;;;;9.47;5.17;;;22.30;99.90;;;;;;5071803;28;20537;-76
2022/08/10 06:36:20;;;;;;;5.40;4.50;;;22.30;99.90;;;;;;5072023;28;20856;-76
2022/08/10 06:38:48;;;;;;;11.07;5.03;;;22.40;99.90;;;;;;5072271;28;20581;-77
2022/08/10 06:41:21;;;;;;;12.03;5.13;;;22.50;99.90;;;;;;5071640;28;20529;-76
2022/08/10 06:43:56;;;;;;;8.57;4.73;;;22.60;99.90;;;;;;5071955;28;20478;-76
2022/08/10 06:46:24;;;;;;;8.63;4.33;;;22.70;99.90;;;;;;5071839;28;20447;-76
2022/08/10 06:48:55;;;;;;;6.07;4.47;;;22.80;99.90;;;;;;5071988;28;20444;-76
2022/08/10 06:51:24;;;;;;;9.43;3.90;;;22.90;99.90;;;;;;5078950;28;20458;-75
2022/08/10 06:53:53;;;;;;;8.63;4.03;;;22.90;99.90;;;;;;5092131;28;20482;-76
2022/08/10 06:56:23;;;;;;;10.07;4.53;;;23.00;99.90;;;;;;5092050;28;20489;-76
2022/08/10 06:58:54;;;;;;;14.33;5.00;;;23.10;99.90;;;;;;5091570;28;20454;-76
2022/08/10 07:01:25;;;;;;;7.00;3.90;;;23.20;99.90;;;;;;5091699;28;20467;-77
2022/08/10 07:03:58;;;;;;;10.57;5.17;;;23.40;99.90;;;;;;5092061;28;20504;-76
2022/08/10 07:06:26;;;;;;;11.10;4.30;;;23.60;99.90;;;;;;5092039;28;20453;-77
2022/08/10 07:08:53;;;;;;;14.87;4.60;;;23.90;99.90;;;;;;5091868;28;20511;-76
2022/08/10 07:11:21;;;;;;;9.27;4.17;;;24.10;99.90;;;;;;5091399;28;20470;-77
2022/08/10 07:13:48;;;;;;;5.30;4.13;;;24.00;99.90;;;;;;5092000;28;20482;-77
2022/08/10 07:16:18;;;;;;;4.53;3.93;;;24.20;99.90;;;;;;5092060;28;20499;-77
2022/08/10 07:18:47;;;;;;;14.30;4.37;;;24.30;99.90;;;;;;5091980;28;20495;-76
2022/08/10 07:21:17;;;;;;;12.33;4.17;;;24.50;99.90;;;;;;5091855;28;20462;-76
2022/08/10 07:23:47;;;;;;;9.53;3.87;;;24.70;99.90;;;;;;5077930;28;20447;-77
2022/08/10 07:26:15;;;;;;;11.03;4.23;;;24.70;99.90;;;;;;5073870;28;20506;-76
2022/08/10 07:28:42;;;;;;;10.63;4.43;;;24.70;99.90;;;;;;5075631;28;21005;-77
2022/08/10 07:31:09;;;;;;;5.90;3.80;;;24.90;99.90;;;;;;5085737;28;20882;-77
2022/08/10 07:33:39;;;;;;;6.17;4.07;;;25.10;99.90;;;;;;5095949;28;20482;-76
2022/08/10 07:36:08;;;;;;;4.10;3.63;;;25.30;99.90;;;;;;5095802;28;20503;-76
2022/08/10 07:38:36;;;;;;;7.33;4.73;;;25.40;99.90;;;;;;5095702;28;20450;-77
2022/08/10 07:41:05;;;;;;;8.73;3.63;;;25.60;99.90;;;;;;5095272;28;20471;-77
2022/08/10 07:43:35;;;;;;;10.77;4.23;;;25.80;99.80;;;;;;5095701;28;20867;-77
2022/08/10 07:46:04;;;;;;;5.23;3.87;;;26.00;99.40;;;;;;5095599;28;20453;-76
2022/08/10 07:48:33;;;;;;;6.70;4.03;;;26.30;99.00;;;;;;5095403;28;20933;-77
2022/08/10 07:51:02;;;;;;;9.37;4.20;;;26.50;98.50;;;;;;5090979;28;20533;-77
2022/08/10 07:53:33;;;;;;;4.07;3.67;;;26.50;97.70;;;;;;5075277;28;20532;-76
2022/08/10 07:56:03;;;;;;;5.57;3.77;;;26.50;97.70;;;;;;5075105;28;20459;-76
2022/08/10 07:58:34;;;;;;;9.33;3.87;;;26.60;97.40;;;;;;5075251;28;20443;-76
2022/08/10 08:01:01;;;;;;;12.70;4.50;;;26.80;97.20;;;;;;5074448;28;20467;-76
2022/08/10 08:03:30;;;;;;;8.50;3.97;;;27.00;96.90;;;;;;5075278;28;20501;-76
2022/08/10 08:05:58;;;;;;;9.37;3.30;;;27.10;96.20;;;;;;5074936;28;20512;-76
2022/08/10 08:08:28;;;;;;;7.30;4.00;;;27.20;96.00;;;;;;5075132;28;20457;-76
2022/08/10 08:10:58;;;;;;;4.60;4.00;;;27.40;96.30;;;;;;5074528;28;20471;-76
2022/08/10 08:13:26;;;;;;;5.27;3.90;;;27.60;95.10;;;;;;5074482;28;20895;-76
2022/08/10 08:15:54;;;;;;;7.33;3.67;;;27.80;95.30;;;;;;5074989;28;20443;-76
2022/08/10 08:18:22;;;;;;;6.70;4.10;;;28.00;95.50;;;;;;5074811;28;20447;-76
2022/08/10 08:20:50;;;;;;;7.47;3.30;;;28.10;94.90;;;;;;5074410;28;20471;-76
2022/08/10 08:23:17;;;;;;;7.83;3.40;;;28.20;94.60;;;;;;5064328;28;20514;-77
2022/08/10 08:25:46;;;;;;;4.70;3.43;;;28.50;94.30;;;;;;5054462;28;20867;-77
2022/08/10 08:28:14;;;;;;;9.03;3.40;;;28.70;94.00;;;;;;5054370;28;20452;-77
2022/08/10 08:30:42;;;;;;;11.33;3.93;;;28.80;93.30;;;;;;5060864;28;20987;-77
2022/08/10 08:33:11;;;;;;;4.20;3.80;;;29.10;93.80;;;;;;5074463;28;20491;-75
2022/08/10 08:35:38;;;;;;;4.50;3.40;;;29.40;93.10;;;;;;5074757;28;20447;-75
2022/08/10 08:38:06;;;;;;;6.07;3.23;;;29.60;92.80;;;;;;5073325;28;20504;-76
2022/08/10 08:40:35;;;;;;;4.93;2.97;;;29.70;92.50;;;;;;5073668;28;20447;-76
2022/08/10 08:43:23;;;;;;;10.10;3.37;;;29.80;92.20;;;;;;5074204;28;20947;-76
2022/08/10 08:46:11;;;;;;;5.07;3.13;;;29.90;91.90;;;;;;5074533;28;20845;-76
2022/08/10 08:48:56;;;;;;;6.40;3.80;;;30.20;91.60;;;;;;5074206;28;20452;-75
2022/08/10 08:51:33;;;;;;;13.13;3.90;;;30.30;91.40;;;;;;5081221;28;20466;-75
2022/08/10 08:54:12;;;;;;;5.00;3.20;;;30.40;91.40;;;;;;5094728;28;20535;-76
2022/08/10 08:56:45;;;;;;;3.93;3.13;;;30.20;90.00;;;;;;5094269;28;20458;-76
2022/08/10 08:59:28;;;;;;;9.97;2.97;;;30.20;89.50;;;;;;5094032;28;20447;-77
2022/08/10 09:02:08;;;;;;;7.23;3.00;;;30.10;89.10;;;;;;5093892;28;20470;-77
2022/08/10 09:04:53;;;;;;;4.60;3.00;;;30.30;90.00;;;;;;5094250;28;20450;-77
2022/08/10 09:07:44;;;;;;;4.77;2.90;;;30.50;89.10;;;;;;5094015;28;20954;-76
2022/08/10 09:10:19;;;;;;;6.40;3.00;;;30.70;86.90;;;;;;5093998;28;20458;-77
2022/08/10 09:12:53;;;;;;;6.77;2.97;;;30.80;86.60;;;;;;5093910;28;20486;-77
2022/08/10 09:15:28;;;;;;;5.23;2.70;;;30.90;86.10;;;;;;5094113;28;20508;-77
2022/08/10 09:18:08;;;;;;;7.03;2.93;;;30.90;84.60;;;;;;5093660;28;20462;-77
2022/08/10 09:20:40;;;;;;;4.37;2.70;;;31.00;86.30;;;;;;5093672;28;20492;-76
2022/08/10 09:23:14;;;;;;;5.53;2.93;;;31.30;84.40;;;;;;5084750;28;20436;-77
2022/08/10 09:25:48;;;;;;;15.47;2.30;;;31.00;83.20;;;;;;5073575;28;20477;-77
2022/08/10 09:28:22;;;;;;;5.37;2.43;;;31.00;83.00;;;;;;5073592;28;20509;-77
2022/08/10 09:30:57;;;;;;;2.83;2.30;;;30.80;81.60;;;;;;5080975;28;20934;-76
2022/08/10 09:33:31;;;;;;;4.43;2.47;;;30.80;82.40;;;;;;5093668;28;20485;-77
2022/08/10 09:36:06;;;;;;;4.17;2.57;;;30.90;81.70;;;;;;5093490;28;20450;-76
2022/08/10 09:38:41;;;;;;;7.07;2.30;;;31.00;80.00;;;;;;5093541;28;20533;-77
2022/08/10 09:41:22;;;;;;;3.23;2.50;;;31.10;80.20;;;;;;5092717;28;20470;-77
2022/08/10 09:43:56;;;;;;;3.80;2.33;;;31.50;81.60;;;;;;5093356;28;20438;-77
2022/08/10 09:46:36;;;;;;;2.93;2.73;;;31.80;79.40;;;;;;5093097;28;20431;-77
2022/08/10 09:49:11;;;;;;;4.90;3.20;;;31.80;77.90;;;;;;5093289;28;20458;-76
2022/08/10 09:51:48;;;;;;;6.27;2.80;;;31.50;78.30;;;;;;5083646;28;20474;-75
2022/08/10 09:54:29;;;;;;;2.53;2.33;;;31.70;77.50;;;;;;5072991;28;20525;-75
2022/08/10 09:57:06;;;;;;;11.97;2.50;;;31.60;77.20;;;;;;5072556;28;20528;-75
2022/08/10 09:59:40;;;;;;;3.63;2.30;;;31.50;79.20;;;;;;5072895;28;20459;-75
2022/08/10 10:02:18;;;;;;;5.00;2.50;;;31.70;78.40;;;;;;5072455;28;20816;-75
2022/08/10 10:05:03;;;;;;;3.30;2.40;;;32.00;77.40;;;;;;5072852;28;20447;-75
2022/08/10 10:07:31;;;;;;;5.03;2.20;;;32.30;76.30;;;;;;5072609;28;20863;-75
2022/08/10 10:10:03;;;;;;;3.70;2.30;;;32.30;74.40;;;;;;5072966;28;20487;-75
2022/08/10 10:12:37;;;;;;;5.53;3.10;;;31.90;76.40;;;;;;5072334;28;20513;-76
2022/08/10 10:15:19;;;;;;;3.33;2.37;;;31.70;76.30;;;;;;5072482;28;20486;-76
2022/08/10 10:18:09;;;;;;;8.13;2.57;;;31.40;75.40;;;;;;5072510;28;20943;-76
2022/08/10 10:20:41;;;;;;;4.53;2.80;;;31.20;75.00;;;;;;5072034;28;20448;-76
2022/08/10 10:23:18;;;;;;;3.37;2.80;;;30.90;76.20;;;;;;5063299;28;20527;-76
2022/08/10 10:25:54;;;;;;;5.67;2.77;;;30.80;76.60;;;;;;5052399;28;20452;-76
2022/08/10 10:28:35;;;;;;;5.00;2.53;;;30.80;75.90;;;;;;5052353;28;20522;-76
2022/08/10 10:31:09;;;;;;;3.13;2.93;;;30.40;75.60;;;;;;5061655;28;20460;-76
2022/08/10 10:33:48;;;;;;;3.30;2.77;;;30.60;76.90;;;;;;5072126;28;20540;-76
2022/08/10 10:36:17;;;;;;;3.60;2.80;;;30.90;76.90;;;;;;5072171;28;20505;-76
2022/08/10 10:38:45;;;;;;;8.03;2.80;;;31.20;74.90;;;;;;5072211;28;20450;-76
2022/08/10 10:41:19;;;;;;;3.10;2.73;;;31.40;73.90;;;;;;5071832;28;20514;-76
2022/08/10 10:43:55;;;;;;;7.30;2.50;;;31.60;74.50;;;;;;5071965;28;20479;-76
2022/08/10 10:46:39;;;;;;;5.10;2.70;;;32.00;74.40;;;;;;5071697;28;20447;-76
2022/08/10 10:49:18;;;;;;;2.90;2.70;;;32.30;73.90;;;;;;5072266;28;20513;-76
2022/08/10 10:51:52;;;;;;;3.17;2.93;;;32.30;71.10;;;;;;5082125;28;20474;-76
2022/08/10 10:54:32;;;;;;;3.37;2.60;;;32.00;73.50;;;;;;5092287;28;20508;-77
2022/08/10 10:57:11;;;;;;;3.83;2.90;;;31.90;71.40;;;;;;5091973;28;20489;-77
2022/08/10 10:59:53;;;;;;;5.17;2.30;;;31.60;72.60;;;;;;5091987;28;20504;-76
2022/08/10 11:02:36;;;;;;;3.83;2.80;;;31.80;73.60;;;;;;5091610;28;20536;-76
2022/08/10 11:05:26;;;;;;;4.70;2.77;;;32.20;72.80;;;;;;5091751;28;20447;-76
2022/08/10 11:07:58;;;;;;;4.83;2.63;;;32.60;71.70;;;;;;5092106;28;20450;-77
2022/08/10 11:10:30;;;;;;;3.10;2.40;;;33.00;68.70;;;;;;5091867;28;20496;-76
2022/08/10 11:13:15;;;;;;;2.53;2.33;;;33.10;70.00;;;;;;5091818;28;20461;-76
2022/08/10 11:15:50;;;;;;;5.43;2.40;;;33.50;69.90;;;;;;5091683;28;20865;-76
2022/08/10 11:18:26;;;;;;;4.40;2.60;;;33.70;69.10;;;;;;5091985;28;20438;-76
2022/08/10 11:21:04;;;;;;;3.53;2.17;;;33.60;67.50;;;;;;5091632;28;20470;-76
2022/08/10 11:23:39;;;;;;;3.53;2.83;;;33.70;70.60;;;;;;5079156;28;20865;-76
2022/08/10 11:26:13;;;;;;;6.17;2.40;;;33.90;69.30;;;;;;5071362;28;21004;-77
2022/08/10 11:28:44;;;;;;;7.00;2.10;;;34.00;68.20;;;;;;5071353;28;20996;-77
2022/08/10 11:31:26;;;;;;;2.20;2.00;;;33.90;66.00;;;;;;5082137;28;20467;-77
2022/08/10 11:33:58;;;;;;;3.20;2.27;;;33.70;65.00;;;;;;5091554;28;20478;-77
2022/08/10 11:36:31;;;;;;;2.53;2.20;;;33.30;64.20;;;;;;5091549;28;20504;-76
2022/08/10 11:39:03;;;;;;;7.80;2.40;;;32.50;65.00;;;;;;5091627;28;20450;-76
2022/08/10 11:41:38;;;;;;;2.67;2.47;;;32.10;66.20;;;;;;5091318;28;20532;-76
2022/08/10 11:44:26;;;;;;;6.60;2.13;;;32.30;67.30;;;;;;5091410;28;20452;-77
2022/08/10 11:46:57;;;;;;;4.97;2.63;;;32.40;65.70;;;;;;5091696;28;20450;-76
2022/08/10 11:49:30;;;;;;;10.80;2.60;;;32.20;65.30;;;;;;5091534;28;20446;-76
2022/08/10 11:52:03;;;;;;;2.30;2.10;;;32.30;65.40;;;;;;5079222;28;20467;-76
2022/08/10 11:54:39;;;;;;;4.60;2.13;;;32.40;64.70;;;;;;5071140;28;20485;-76
2022/08/10 11:57:06;;;;;;;8.20;2.07;;;32.90;64.20;;;;;;5071277;28;20459;-76
2022/08/10 12:02:22;;;;;;;3.90;2.13;;;33.30;63.20;;;;;;5071067;28;20982;-76
2022/08/10 12:04:52;;;;;;;3.67;2.07;;;33.20;63.00;;;;;;5071189;28;20440;-77
2022/08/10 12:07:22;;;;;;;2.40;2.20;;;33.00;63.40;;;;;;5071040;28;21029;-76
2022/08/10 12:09:49;;;;;;;3.07;2.43;;;33.00;62.10;;;;;;5071276;28;20494;-76
2022/08/10 12:12:17;;;;;;;2.63;2.43;;;32.80;62.10;;;;;;5072650;28;20987;-77
2022/08/10 12:14:50;;;;;;;4.70;2.03;;;32.90;62.60;;;;;;5074665;28;20487;-76
2022/08/10 12:17:22;;;;;;;4.20;1.80;;;32.90;63.10;;;;;;5074873;28;20447;-76
2022/08/10 12:19:54;;;;;;;6.00;2.20;;;33.00;61.90;;;;;;5074405;28;20443;-76
2022/08/10 12:22:29;;;;;;;2.40;2.20;;;33.00;61.80;;;;;;5071985;28;20495;-76
2022/08/10 12:25:00;;;;;;;6.30;2.30;;;33.00;62.00;;;;;;5054498;28;20440;-76
2022/08/10 12:27:32;;;;;;;2.20;2.00;;;33.00;62.00;;;;;;5054594;28;21010;-76
2022/08/10 12:30:04;;;;;;;5.23;2.40;;;33.20;61.70;;;;;;5054974;28;20861;-76
2022/08/10 12:32:38;;;;;;;6.50;2.40;;;33.50;62.00;;;;;;5074279;28;20983;-77
2022/08/10 12:35:15;;;;;;;3.43;2.07;;;33.80;60.00;;;;;;5074400;28;20540;-76
2022/08/10 12:37:56;;;;;;;3.27;2.37;;;33.30;61.20;;;;;;5074509;28;20505;-76
2022/08/10 12:40:26;;;;;;;3.13;2.27;;;33.70;61.20;;;;;;5073540;28;20453;-77
2022/08/10 12:43:01;;;;;;;4.93;2.30;;;33.80;59.70;;;;;;5074142;28;20448;-76
2022/08/10 12:45:36;;;;;;;3.73;2.60;;;33.50;60.30;;;;;;5074309;28;20443;-76
2022/08/10 12:48:08;;;;;;;2.93;2.40;;;33.30;61.20;;;;;;5074249;28;20447;-76
2022/08/10 12:50:41;;;;;;;3.20;2.50;;;33.30;61.30;;;;;;5074133;28;20808;-76
2022/08/10 12:53:23;;;;;;;4.67;2.30;;;33.20;61.60;;;;;;5094544;28;20521;-76
2022/08/10 12:55:50;;;;;;;3.13;2.20;;;33.50;62.60;;;;;;5094138;28;20535;-76
2022/08/10 12:58:19;;;;;;;3.70;2.50;;;33.70;61.00;;;;;;5094215;28;20528;-76
2022/08/10 13:00:48;;;;;;;4.43;2.80;;;34.00;61.20;;;;;;5093760;28;20565;-76
2022/08/10 13:03:16;;;;;;;3.13;2.50;;;34.10;60.60;;;;;;5094069;28;20455;-76
2022/08/10 13:05:43;;;;;;;6.57;2.37;;;34.00;60.50;;;;;;5094176;28;20499;-76
2022/08/10 13:11:00;;;;;;;6.57;2.10;;;33.70;60.40;;;;;;5093554;28;20961;-77
2022/08/10 13:13:32;;;;;;;2.93;2.50;;;33.50;60.10;;;;;;5093957;28;20450;-76
2022/08/10 13:15:59;;;;;;;4.73;2.93;;;33.30;60.70;;;;;;5094007;28;20482;-77